Time;durP1;ratioP1;P1;durP2;ratioP2;P2;SDS_P1;SDS_P2;PMS_P1;PMS_P2;Temp;Humidity;BMP_temperature;BMP_pressure;BME280_temperature;BME280_humidity;BME280_pressure;Samples;Min_cycle;Max_cycle;Signal;HPM_P1;HPM_P2
2022/10/23 00:00:09;;;;;;;68.88;65.38;;;;;;;9.63;100.00;101462.28;5058591;28;20040;-75
2022/10/23 00:02:35;;;;;;;67.28;64.55;;;;;;;9.63;100.00;101459.63;5065892;28;20037;-75
2022/10/23 00:05:00;;;;;;;69.15;65.95;;;;;;;9.61;100.00;101456.28;5058988;28;20033;-76
2022/10/23 00:07:25;;;;;;;73.50;70.40;;;;;;;9.64;100.00;101451.56;5059290;28;20032;-76
2022/10/23 00:09:51;;;;;;;61.35;58.85;;;;;;;9.66;100.00;101448.81;5057912;28;20489;-76
2022/10/23 00:12:16;;;;;;;69.60;66.32;;;;;;;9.65;100.00;101452.44;5060970;28;20032;-76
2022/10/23 00:14:41;;;;;;;67.05;64.25;;;;;;;9.67;100.00;101447.88;5059027;28;20051;-75
2022/10/23 00:17:09;;;;;;;65.53;62.53;;;;;;;9.59;100.00;101442.41;5058384;28;20477;-75
2022/10/23 00:19:34;;;;;;;70.20;67.28;;;;;;;9.61;100.00;101435.22;5041274;28;20032;-75
2022/10/23 00:22:00;;;;;;;67.97;64.85;;;;;;;9.67;100.00;101450.50;5058837;28;20488;-75
2022/10/23 00:24:25;;;;;;;68.82;65.20;;;;;;;9.51;100.00;101423.75;5058617;28;20084;-75
2022/10/23 00:26:51;;;;;;;77.38;74.18;;;;;;;9.64;100.00;101445.47;5059127;28;20029;-75
2022/10/23 00:29:16;;;;;;;61.22;58.47;;;;;;;9.63;100.00;101449.91;5059930;28;20028;-75
2022/10/23 00:31:41;;;;;;;68.80;65.65;;;;;;;9.65;100.00;101447.16;5062732;28;20031;-75
2022/10/23 00:34:08;;;;;;;67.38;63.78;;;;;;;9.65;100.00;101442.72;5064004;28;20067;-75
2022/10/23 00:36:33;;;;;;;66.05;63.08;;;;;;;9.65;100.00;101444.53;5060791;28;20541;-76
2022/10/23 00:38:58;;;;;;;68.70;65.78;;;;;;;9.66;100.00;101443.56;5061837;28;20033;-76
2022/10/23 00:41:27;;;;;;;66.20;63.33;;;;;;;9.66;100.00;101448.81;5068501;28;20043;-75
2022/10/23 00:44:16;;;;;;;66.57;63.78;;;;;;;9.64;100.00;101441.03;5063470;28;20021;-76
2022/10/23 00:46:41;;;;;;;67.38;64.63;;;;;;;9.65;100.00;101441.91;5040962;28;20056;-75
2022/10/23 00:49:08;;;;;;;68.22;64.90;;;;;;;9.66;100.00;101443.56;5062465;28;20021;-75
2022/10/23 00:51:39;;;;;;;67.63;64.75;;;;;;;9.53;100.00;101421.84;5063714;28;20036;-76
2022/10/23 00:54:05;;;;;;;70.40;67.47;;;;;;;9.66;100.00;101449.66;5062515;28;20163;-76
2022/10/23 00:56:35;;;;;;;60.58;57.17;;;;;;;9.52;100.00;101441.25;5059682;28;20036;-76
2022/10/23 00:59:01;;;;;;;65.45;62.35;;;;;;;9.59;100.00;101453.78;5061777;28;20484;-75
2022/10/23 01:01:26;;;;;;;64.03;61.58;;;;;;;9.43;100.00;101430.53;5062914;28;20039;-75
2022/10/23 01:03:52;;;;;;;64.30;61.60;;;;;;;9.52;100.00;101441.25;5061596;28;20056;-75
2022/10/23 01:06:36;;;;;;;64.97;62.42;;;;;;;9.50;100.00;101443.19;5061800;28;20438;-75
2022/10/23 01:09:02;;;;;;;66.63;64.00;;;;;;;9.54;100.00;101449.84;5061116;28;20089;-76
2022/10/23 01:11:59;;;;;;;69.32;66.07;;;;;;;9.55;100.00;101451.53;5061458;28;20033;-75
2022/10/23 01:14:31;;;;;;;63.00;60.38;;;;;;;9.55;100.00;101454.16;5057845;28;20047;-76
2022/10/23 01:17:09;;;;;;;60.47;58.08;;;;;;;9.52;100.00;101449.16;5061797;28;20055;-75
2022/10/23 01:20:13;;;;;;;77.22;73.55;;;;;;;9.50;100.00;101459.00;5062911;28;20506;-76
2022/10/23 01:22:44;;;;;;;63.40;60.53;;;;;;;9.48;100.00;101462.56;5060127;28;20040;-76
2022/10/23 01:25:22;;;;;;;64.40;61.63;;;;;;;9.44;100.00;101455.88;5060704;28;20045;-76
2022/10/23 01:27:54;;;;;;;66.55;63.53;;;;;;;9.36;100.00;101452.22;5062454;28;20551;-75
2022/10/23 01:30:20;;;;;;;66.03;62.50;;;;;;;9.26;100.00;101431.09;5062175;28;20095;-75
2022/10/23 01:32:57;;;;;;;66.18;63.38;;;;;;;9.34;100.00;101439.19;5063494;28;20081;-76
2022/10/23 01:35:28;;;;;;;68.78;65.43;;;;;;;9.47;100.00;101453.00;5061316;28;20025;-76
2022/10/23 01:38:02;;;;;;;68.20;64.05;;;;;;;9.48;100.00;101446.75;5060521;28;20040;-76
2022/10/23 01:40:36;;;;;;;57.45;54.78;;;;;;;9.51;100.00;101448.31;5061757;28;20630;-76
2022/10/23 01:43:11;;;;;;;58.05;55.53;;;;;;;9.47;100.00;101455.66;5063233;28;20032;-76
2022/10/23 01:45:44;;;;;;;61.25;58.13;;;;;;;9.45;100.00;101454.94;5061481;28;20044;-76
2022/10/23 01:48:15;;;;;;;66.80;63.67;;;;;;;9.44;100.00;101458.53;5059914;28;20025;-76
2022/10/23 01:50:41;;;;;;;66.40;63.40;;;;;;;9.45;100.00;101452.31;5067071;28;20013;-76
2022/10/23 01:53:07;;;;;;;68.45;65.18;;;;;;;9.38;100.00;101440.59;5060878;28;20037;-76
2022/10/23 01:55:33;;;;;;;68.65;65.88;;;;;;;9.30;100.00;101427.25;5059921;28;20039;-76
2022/10/23 01:58:01;;;;;;;74.55;71.07;;;;;;;9.43;100.00;101454.22;5061255;28;20031;-76
2022/10/23 02:00:27;;;;;;;66.90;63.47;;;;;;;9.43;100.00;101448.13;5060343;28;20044;-75
2022/10/23 02:02:54;;;;;;;69.22;66.03;;;;;;;9.42;100.00;101441.19;5061362;28;20033;-76
2022/10/23 02:05:26;;;;;;;71.72;68.47;;;;;;;9.31;100.00;101428.91;5060295;28;20051;-76
2022/10/23 02:07:52;;;;;;;64.00;61.22;;;;;;;9.39;100.00;101436.19;5060366;28;20421;-75
2022/10/23 02:10:18;;;;;;;70.85;67.85;;;;;;;9.41;100.00;101426.34;5060869;28;20098;-75
2022/10/23 02:13:07;;;;;;;66.85;63.90;;;;;;;9.39;100.00;101429.09;5061050;28;20020;-75
2022/10/23 02:15:49;;;;;;;69.43;66.55;;;;;;;9.40;100.00;101428.13;5061261;28;20048;-76
2022/10/23 02:18:25;;;;;;;74.60;71.55;;;;;;;9.38;100.00;101434.50;5060890;28;20025;-77
2022/10/23 02:21:09;;;;;;;62.58;59.67;;;;;;;9.36;100.00;101429.34;5061000;28;20127;-76
2022/10/23 02:23:44;;;;;;;61.90;59.13;;;;;;;9.33;100.00;101420.88;5058882;28;20048;-76
2022/10/23 02:26:25;;;;;;;67.38;64.05;;;;;;;9.37;100.00;101427.56;5061445;28;20104;-76
2022/10/23 02:29:07;;;;;;;72.88;69.88;;;;;;;9.36;100.00;101421.44;5061344;28;20043;-75
2022/10/23 02:31:33;;;;;;;72.38;68.80;;;;;;;9.26;100.00;101405.56;5060328;28;20028;-76
2022/10/23 02:33:59;;;;;;;71.40;67.53;;;;;;;9.26;100.00;101399.47;5060224;28;20163;-76
2022/10/23 02:36:24;;;;;;;71.72;68.32;;;;;;;9.28;100.00;101394.91;5060914;28;20024;-75
2022/10/23 02:38:49;;;;;;;67.28;64.07;;;;;;;9.36;100.00;101418.81;5058209;28;20523;-75
2022/10/23 02:41:30;;;;;;;73.57;69.97;;;;;;;9.38;100.00;101419.50;5062660;28;20033;-75
2022/10/23 02:44:25;;;;;;;75.32;71.80;;;;;;;9.27;100.00;101401.13;5060019;28;20165;-74
2022/10/23 02:47:09;;;;;;;66.25;62.78;;;;;;;9.36;100.00;101418.81;5051385;28;20047;-75
2022/10/23 02:49:50;;;;;;;71.07;67.72;;;;;;;9.38;100.00;101419.50;5059594;28;20040;-76
2022/10/23 02:52:43;;;;;;;65.68;62.65;;;;;;;9.36;100.00;101420.59;5059006;28;20020;-76
2022/10/23 02:55:41;;;;;;;63.28;60.25;;;;;;;9.25;100.00;101395.16;5059284;28;20033;-75
2022/10/23 02:58:16;;;;;;;65.90;62.53;;;;;;;9.34;100.00;101399.69;5065687;28;20025;-76
2022/10/23 03:00:48;;;;;;;70.40;66.70;;;;;;;9.35;100.00;101403.97;5059405;28;20020;-76
2022/10/23 03:03:18;;;;;;;64.53;61.63;;;;;;;9.35;100.00;101401.34;5060221;28;20033;-75
2022/10/23 03:05:44;;;;;;;65.25;62.38;;;;;;;9.35;100.00;101400.50;5061241;28;20070;-75
2022/10/23 03:08:12;;;;;;;76.40;72.88;;;;;;;9.28;100.00;101394.91;5058613;28;20072;-75
2022/10/23 03:10:39;;;;;;;70.22;66.95;;;;;;;9.31;100.00;101394.66;5059636;28;20025;-75
2022/10/23 03:13:04;;;;;;;72.25;68.72;;;;;;;9.31;100.00;101388.56;5057988;28;20105;-76
2022/10/23 03:15:30;;;;;;;67.05;64.05;;;;;;;9.30;100.00;101385.09;5059226;28;20020;-76
2022/10/23 03:17:55;;;;;;;67.93;64.85;;;;;;;9.30;100.00;101373.69;5060423;28;20127;-76
2022/10/23 03:20:21;;;;;;;64.63;61.60;;;;;;;9.28;100.00;101365.94;5059102;28;20024;-76
2022/10/23 03:22:46;;;;;;;71.50;68.13;;;;;;;9.23;100.00;101370.75;5060183;28;20100;-75
2022/10/23 03:25:11;;;;;;;64.55;61.65;;;;;;;9.20;100.00;101361.31;5048883;28;20062;-75
2022/10/23 03:27:37;;;;;;;73.80;70.13;;;;;;;9.17;100.00;101350.22;5060566;28;20035;-75
2022/10/23 03:30:04;;;;;;;70.35;67.38;;;;;;;9.27;100.00;101361.63;5051104;28;20052;-75
2022/10/23 03:32:29;;;;;;;70.60;67.32;;;;;;;9.27;100.00;101364.25;5060349;28;20029;-75
2022/10/23 03:34:54;;;;;;;65.10;62.40;;;;;;;9.26;100.00;101360.78;5042678;28;20031;-75
2022/10/23 03:37:20;;;;;;;67.90;65.13;;;;;;;9.29;100.00;101361.50;5058456;28;20063;-76
2022/10/23 03:39:45;;;;;;;70.43;67.05;;;;;;;9.27;100.00;101359.81;5058655;28;20032;-75
2022/10/23 03:42:11;;;;;;;72.45;69.43;;;;;;;9.29;100.00;101372.88;5050994;28;20123;-76
2022/10/23 03:44:36;;;;;;;71.25;68.15;;;;;;;9.14;100.00;101337.28;5058923;28;20029;-75
2022/10/23 03:47:02;;;;;;;66.50;63.45;;;;;;;9.22;100.00;101363.81;5057725;28;20033;-75
2022/10/23 03:49:27;;;;;;;68.40;65.40;;;;;;;9.15;100.00;101355.59;5060512;28;20032;-76
2022/10/23 03:51:53;;;;;;;68.82;65.82;;;;;;;9.19;100.00;101361.44;5043067;28;20047;-76
2022/10/23 03:54:21;;;;;;;71.05;67.93;;;;;;;9.21;100.00;101359.50;5056770;28;20024;-75
2022/10/23 03:56:46;;;;;;;64.88;62.00;;;;;;;9.20;100.00;101357.84;5059659;28;20025;-75
2022/10/23 03:59:12;;;;;;;70.32;67.20;;;;;;;9.22;100.00;101358.56;5064067;28;20064;-75
2022/10/23 04:01:37;;;;;;;76.32;72.20;;;;;;;9.23;100.00;101357.56;5057391;28;20028;-76
2022/10/23 04:04:02;;;;;;;74.18;70.97;;;;;;;9.21;100.00;101356.88;5060259;28;20033;-75
2022/10/23 04:06:28;;;;;;;66.90;63.92;;;;;;;9.19;100.00;101362.28;5058645;28;20028;-75
2022/10/23 04:08:53;;;;;;;67.03;63.97;;;;;;;9.18;100.00;101365.03;5058367;28;20025;-76
2022/10/23 04:11:18;;;;;;;72.10;69.00;;;;;;;9.12;100.00;101344.47;5058862;28;20492;-75
2022/10/23 04:13:44;;;;;;;71.72;68.53;;;;;;;9.16;100.00;101349.34;5042382;28;20372;-76
2022/10/23 04:16:09;;;;;;;70.13;66.78;;;;;;;9.24;100.00;101348.72;5057963;28;20033;-75
2022/10/23 04:18:34;;;;;;;69.85;66.82;;;;;;;9.10;100.00;101330.59;5059127;28;20439;-75
2022/10/23 04:21:00;;;;;;;70.00;66.60;;;;;;;9.19;100.00;101341.22;5042323;28;20044;-75
2022/10/23 04:23:25;;;;;;;66.07;63.33;;;;;;;9.14;100.00;101335.47;5059078;28;20132;-75
2022/10/23 04:25:51;;;;;;;70.78;67.72;;;;;;;9.14;100.00;101337.28;5057798;28;20380;-76
2022/10/23 04:28:16;;;;;;;71.25;68.30;;;;;;;8.95;100.00;101309.88;5057737;28;20036;-76
2022/10/23 04:30:41;;;;;;;68.88;65.65;;;;;;;9.06;100.00;101330.88;5040665;28;20055;-76
2022/10/23 04:33:07;;;;;;;70.85;67.60;;;;;;;9.13;100.00;101336.47;5049250;28;20085;-76
2022/10/23 04:35:32;;;;;;;68.90;66.07;;;;;;;9.13;100.00;101335.63;5058853;28;20036;-76
2022/10/23 04:37:57;;;;;;;73.70;70.50;;;;;;;9.12;100.00;101334.78;5058055;28;20036;-75
2022/10/23 04:40:23;;;;;;;74.80;71.22;;;;;;;9.11;100.00;101333.13;5057802;28;20403;-76
2022/10/23 04:42:48;;;;;;;71.55;68.55;;;;;;;9.12;100.00;101323.41;5059833;28;20051;-76
2022/10/23 04:45:13;;;;;;;68.85;65.65;;;;;;;9.03;100.00;101315.31;5056866;28;20456;-76
2022/10/23 04:47:39;;;;;;;68.60;65.47;;;;;;;9.15;100.00;101325.81;5041055;28;20037;-76
2022/10/23 04:50:05;;;;;;;77.63;74.30;;;;;;;9.12;100.00;101318.16;5059399;28;20052;-75
2022/10/23 04:52:30;;;;;;;76.88;73.25;;;;;;;9.11;100.00;101312.06;5057640;28;20119;-75
2022/10/23 04:54:56;;;;;;;72.53;68.80;;;;;;;9.04;100.00;101316.16;5058877;28;20416;-75
2022/10/23 04:57:21;;;;;;;84.78;80.82;;;;;;;9.09;100.00;101324.50;5057531;28;20116;-76
2022/10/23 04:59:47;;;;;;;70.68;67.68;;;;;;;9.14;100.00;101326.75;5064615;28;20086;-76
2022/10/23 05:02:12;;;;;;;73.35;70.10;;;;;;;9.14;100.00;101321.50;5059539;28;20075;-76
2022/10/23 05:04:37;;;;;;;82.68;79.07;;;;;;;9.07;100.00;101311.47;5060211;28;20029;-76
2022/10/23 05:07:03;;;;;;;72.45;69.20;;;;;;;9.09;100.00;101308.72;5061417;28;20528;-76
2022/10/23 05:09:28;;;;;;;79.90;76.03;;;;;;;9.05;100.00;101307.28;5060125;28;20059;-75
2022/10/23 05:11:54;;;;;;;75.00;71.63;;;;;;;9.07;100.00;101318.53;5059060;28;20514;-76
2022/10/23 05:14:19;;;;;;;74.53;71.20;;;;;;;8.98;100.00;101306.97;5058803;28;20025;-76
2022/10/23 05:16:54;;;;;;;74.60;71.25;;;;;;;8.98;100.00;101306.97;5061110;28;20037;-76
2022/10/23 05:19:23;;;;;;;74.35;71.13;;;;;;;8.98;100.00;101314.03;5062068;28;20103;-76
2022/10/23 05:21:54;;;;;;;69.40;66.03;;;;;;;8.99;100.00;101313.06;5062559;28;20035;-76
2022/10/23 05:24:21;;;;;;;71.03;68.03;;;;;;;8.99;100.00;101310.44;5061797;28;20503;-76
2022/10/23 05:26:46;;;;;;;70.70;67.60;;;;;;;8.92;100.00;101310.13;5060867;28;20448;-76
2022/10/23 05:29:12;;;;;;;77.78;73.75;;;;;;;8.91;100.00;101316.34;5061578;28;20075;-76
2022/10/23 05:31:38;;;;;;;74.68;71.57;;;;;;;8.89;100.00;101307.75;5060988;28;20037;-75
2022/10/23 05:34:04;;;;;;;78.00;74.57;;;;;;;8.84;100.00;101300.25;5061753;28;20036;-76
2022/10/23 05:36:29;;;;;;;74.20;71.00;;;;;;;8.86;100.00;101302.72;5060159;28;20544;-76
2022/10/23 05:38:56;;;;;;;72.03;68.70;;;;;;;8.84;100.00;101294.13;5061750;28;20124;-75
2022/10/23 05:41:21;;;;;;;74.63;70.80;;;;;;;8.83;100.00;101287.19;5060957;28;20086;-75
2022/10/23 05:43:47;;;;;;;72.25;68.82;;;;;;;8.67;100.00;101266.59;5061579;28;20044;-75
2022/10/23 05:46:12;;;;;;;68.70;65.72;;;;;;;8.76;100.00;101281.63;5060744;28;20055;-76
2022/10/23 05:48:38;;;;;;;72.43;69.28;;;;;;;8.68;100.00;101268.25;5061745;28;20115;-75
2022/10/23 05:51:08;;;;;;;77.55;73.95;;;;;;;8.64;100.00;101261.56;5059966;28;20029;-75
2022/10/23 05:53:34;;;;;;;75.88;72.50;;;;;;;8.81;100.00;101278.59;5060346;28;20040;-75
2022/10/23 05:56:06;;;;;;;72.07;69.03;;;;;;;8.84;100.00;101278.31;5061834;28;20044;-75
2022/10/23 05:58:32;;;;;;;69.97;66.53;;;;;;;8.78;100.00;101268.34;5061293;28;20032;-75
2022/10/23 06:00:57;;;;;;;68.85;65.88;;;;;;;8.83;100.00;101276.66;5061965;28;20032;-75
2022/10/23 06:03:23;;;;;;;76.80;73.70;;;;;;;8.83;100.00;101274.03;5061215;28;20040;-76
2022/10/23 06:05:51;;;;;;;72.88;69.47;;;;;;;8.82;100.00;101275.00;5061530;28;20062;-75
2022/10/23 06:08:17;;;;;;;71.82;68.65;;;;;;;8.83;100.00;101259.06;5062081;28;20396;-75
2022/10/23 06:10:43;;;;;;;71.50;68.38;;;;;;;8.85;100.00;101258.94;5061742;28;20032;-75
2022/10/23 06:13:08;;;;;;;81.13;77.57;;;;;;;8.86;100.00;101255.34;5061873;28;20032;-74
2022/10/23 06:15:34;;;;;;;80.05;76.55;;;;;;;8.88;100.00;101263.94;5062190;28;20071;-75
2022/10/23 06:18:03;;;;;;;76.32;72.22;;;;;;;8.86;100.00;101252.72;5058106;28;20098;-75
2022/10/23 06:20:29;;;;;;;71.93;68.82;;;;;;;8.92;100.00;101269.81;5058897;28;20029;-75
2022/10/23 06:22:54;;;;;;;79.88;75.38;;;;;;;8.91;100.00;101262.88;5060416;28;20477;-76
2022/10/23 06:25:19;;;;;;;73.63;70.05;;;;;;;8.87;100.00;101257.03;5059833;28;20493;-75
2022/10/23 06:27:45;;;;;;;75.25;71.97;;;;;;;8.87;100.00;101262.28;5058454;28;20392;-74
2022/10/23 06:30:11;;;;;;;76.95;73.70;;;;;;;8.87;100.00;101254.41;5063856;28;20064;-75
2022/10/23 06:32:36;;;;;;;71.20;68.05;;;;;;;8.89;100.00;101256.91;5074770;28;20036;-74
2022/10/23 06:35:02;;;;;;;71.68;68.63;;;;;;;8.80;100.00;101234.81;5057682;28;20020;-74
2022/10/23 06:37:28;;;;;;;77.63;74.18;;;;;;;8.91;100.00;101247.09;5059028;28;20385;-74
2022/10/23 06:39:53;;;;;;;79.55;76.00;;;;;;;8.90;100.00;101264.66;5058106;28;20033;-75
2022/10/23 06:42:18;;;;;;;76.10;72.03;;;;;;;8.93;100.00;101248.63;5058684;28;20377;-75
2022/10/23 06:44:44;;;;;;;76.07;72.30;;;;;;;8.94;100.00;101246.81;5060925;28;20621;-75
2022/10/23 06:47:09;;;;;;;75.35;71.88;;;;;;;8.97;100.00;101252.66;5059175;28;20033;-75
2022/10/23 06:49:35;;;;;;;72.03;68.82;;;;;;;8.98;100.00;101253.50;5065424;28;20029;-75
2022/10/23 06:52:00;;;;;;;73.20;69.50;;;;;;;8.98;100.00;101256.94;5056179;28;20089;-75
2022/10/23 06:54:25;;;;;;;69.18;66.00;;;;;;;8.93;100.00;101246.00;5056161;28;20167;-75
2022/10/23 06:56:52;;;;;;;71.68;68.25;;;;;;;8.97;100.00;101255.31;5052514;28;20108;-75
2022/10/23 06:59:18;;;;;;;72.72;69.57;;;;;;;9.03;100.00;101267.91;5054438;28;20108;-75
2022/10/23 07:01:44;;;;;;;70.13;66.43;;;;;;;9.10;100.00;101268.22;5038435;28;20086;-75
2022/10/23 07:04:12;;;;;;;71.60;67.75;;;;;;;9.13;100.00;101265.34;5054766;28;20036;-76
2022/10/23 07:06:37;;;;;;;70.20;67.20;;;;;;;9.19;100.00;101274.53;5040093;28;20028;-75
2022/10/23 07:09:03;;;;;;;68.63;65.15;;;;;;;9.22;100.00;101283.00;5055062;28;20094;-75
2022/10/23 07:11:28;;;;;;;75.50;72.20;;;;;;;9.15;100.00;101258.16;5053621;28;20021;-75
2022/10/23 07:13:54;;;;;;;65.68;62.63;;;;;;;9.32;100.00;101279.56;5022032;28;20508;-75
2022/10/23 07:16:21;;;;;;;69.90;66.45;;;;;;;9.36;100.00;101270.44;5053468;28;20404;-75
2022/10/23 07:18:47;;;;;;;67.72;64.85;;;;;;;9.43;100.00;101272.44;5054060;28;20177;-75
2022/10/23 07:21:13;;;;;;;74.45;70.43;;;;;;;9.51;100.00;101279.66;5053738;28;20020;-75
2022/10/23 07:23:38;;;;;;;71.50;68.10;;;;;;;9.58;100.00;101277.34;5052881;28;20423;-75
2022/10/23 07:26:15;;;;;;;68.47;64.70;;;;;;;9.60;100.00;101268.34;5053722;28;20043;-75
2022/10/23 07:28:42;;;;;;;64.13;60.88;;;;;;;9.61;100.00;101270.00;5053969;28;20028;-75
2022/10/23 07:31:08;;;;;;;69.30;65.43;;;;;;;9.64;100.00;101271.53;5052580;28;20048;-75
2022/10/23 07:33:34;;;;;;;64.75;61.75;;;;;;;9.72;100.00;101282.25;5052634;28;20457;-75
2022/10/23 07:35:59;;;;;;;63.08;60.13;;;;;;;9.80;100.00;101279.78;5053780;28;20423;-75
2022/10/23 07:38:26;;;;;;;67.93;64.88;;;;;;;9.82;100.00;101269.94;5054487;28;20032;-74
2022/10/23 07:40:52;;;;;;;64.47;61.53;;;;;;;9.94;100.00;101275.09;5052199;28;20025;-75
2022/10/23 07:43:19;;;;;;;69.70;66.65;;;;;;;9.82;100.00;101248.84;5052538;28;20110;-75
2022/10/23 07:45:48;;;;;;;66.10;63.10;;;;;;;10.02;100.00;101272.63;5051587;28;20091;-75
2022/10/23 07:48:15;;;;;;;56.63;53.72;;;;;;;10.08;100.00;101259.72;5053895;28;20067;-75
2022/10/23 07:50:40;;;;;;;63.10;60.30;;;;;;;10.13;100.00;101253.22;5052694;28;20373;-75
2022/10/23 07:53:05;;;;;;;60.80;56.83;;;;;;;10.15;100.00;101246.84;5052425;28;20056;-75
2022/10/23 07:55:31;;;;;;;57.60;54.50;;;;;;;10.17;100.00;101247.53;5053788;28;20033;-75
2022/10/23 07:57:56;;;;;;;58.08;55.30;;;;;;;10.22;100.00;101234.75;5052734;28;20036;-75
2022/10/23 08:00:21;;;;;;;59.20;56.25;;;;;;;10.21;100.00;101221.69;5051365;28;20086;-74
2022/10/23 08:02:47;;;;;;;61.83;59.10;;;;;;;10.34;100.00;101237.28;5054667;28;20757;-75
2022/10/23 08:05:12;;;;;;;62.30;59.30;;;;;;;10.32;100.00;101218.13;5053034;28;20124;-75
2022/10/23 08:07:37;;;;;;;60.83;58.20;;;;;;;10.38;100.00;101234.22;5051294;28;20120;-76
2022/10/23 08:10:03;;;;;;;52.45;49.58;;;;;;;10.46;100.00;101230.91;5054716;28;20561;-75
2022/10/23 08:12:29;;;;;;;58.80;56.15;;;;;;;10.52;100.00;101230.34;5056860;28;20061;-75
2022/10/23 08:14:54;;;;;;;65.85;62.03;;;;;;;10.57;100.00;101222.81;5047656;28;20372;-75
2022/10/23 08:17:19;;;;;;;57.20;54.38;;;;;;;10.55;100.00;101214.22;5053595;28;20114;-75
2022/10/23 08:19:47;;;;;;;60.25;57.75;;;;;;;10.52;100.00;101193.41;5037870;28;20367;-75
2022/10/23 08:22:13;;;;;;;53.05;50.58;;;;;;;10.56;100.00;101189.50;5049765;28;20500;-76
2022/10/23 08:24:38;;;;;;;56.45;53.63;;;;;;;10.65;100.00;101204.47;5051407;28;20083;-76
2022/10/23 08:27:04;;;;;;;57.05;54.47;;;;;;;10.70;100.00;101206.69;5054549;28;20064;-75
2022/10/23 08:29:29;;;;;;;57.45;54.35;;;;;;;10.80;100.00;101194.31;5057475;28;20123;-75
2022/10/23 08:31:56;;;;;;;57.58;55.15;;;;;;;10.86;100.00;101191.06;5053089;28;20112;-75
2022/10/23 08:34:22;;;;;;;54.05;51.60;;;;;;;10.90;100.00;101192.47;5055983;28;20029;-75
2022/10/23 08:36:48;;;;;;;58.60;56.20;;;;;;;10.88;100.00;101183.03;5055724;28;20488;-75
2022/10/23 08:39:13;;;;;;;59.25;56.53;;;;;;;11.02;100.00;101195.78;5056111;28;20063;-75
2022/10/23 08:41:47;;;;;;;59.00;56.50;;;;;;;11.18;100.00;101194.31;5036149;28;20071;-75
2022/10/23 08:44:30;;;;;;;57.58;54.67;;;;;;;11.20;100.00;101201.13;5054464;28;20033;-75
2022/10/23 08:47:02;;;;;;;53.15;50.60;;;;;;;11.32;100.00;101201.75;5055255;28;20676;-75
2022/10/23 08:49:37;;;;;;;58.53;55.65;;;;;;;11.38;100.00;101197.72;5062678;28;20028;-75
2022/10/23 08:52:13;;;;;;;55.90;52.30;;;;;;;11.34;100.00;101176.03;5057476;28;20028;-75
2022/10/23 08:54:50;;;;;;;54.80;52.05;;;;;;;11.41;100.00;101194.75;5053649;28;20103;-75
2022/10/23 08:57:17;;;;;;;55.58;53.17;;;;;;;11.53;100.00;101191.78;5056266;28;20182;-75
2022/10/23 09:00:13;;;;;;;59.40;56.05;;;;;;;11.64;100.00;101185.44;5041842;28;20028;-75
2022/10/23 09:02:51;;;;;;;49.83;47.22;;;;;;;11.70;100.00;101189.31;5075435;28;20041;-75
2022/10/23 09:05:56;;;;;;;46.60;44.67;;;;;;;11.83;100.00;101187.16;5060780;28;20064;-75
2022/10/23 09:08:43;;;;;;;50.97;48.45;;;;;;;11.91;100.00;101165.25;5059409;28;20040;-76
2022/10/23 09:11:17;;;;;;;50.33;47.78;;;;;;;12.10;100.00;101185.44;5058202;28;20036;-76
2022/10/23 09:14:16;;;;;;;50.15;47.78;;;;;;;12.24;100.00;101187.56;5061394;28;20029;-75
2022/10/23 09:17:15;;;;;;;41.35;39.15;;;;;;;12.38;100.00;101178.25;5059991;28;20109;-75
2022/10/23 09:19:43;;;;;;;38.00;35.97;;;;;;;12.60;100.00;101179.56;5059414;28;20052;-75
2022/10/23 09:22:10;;;;;;;40.53;38.42;;;;;;;12.74;100.00;101176.34;5059795;28;20030;-76
2022/10/23 09:24:35;;;;;;;44.63;42.55;;;;;;;12.79;100.00;101175.06;5058034;28;20061;-76
2022/10/23 09:27:01;;;;;;;41.05;38.55;;;;;;;12.85;100.00;101155.91;5058631;28;20154;-76
2022/10/23 09:29:34;;;;;;;39.97;38.17;;;;;;;13.10;100.00;101155.00;5040535;28;20056;-75
2022/10/23 09:32:04;;;;;;;40.22;37.97;;;;;;;13.56;100.00;101152.88;5059364;28;20381;-76
2022/10/23 09:34:31;;;;;;;32.70;31.20;;;;;;;14.07;100.00;101160.75;5060414;28;20009;-76
2022/10/23 09:37:03;;;;;;;30.50;29.08;;;;;;;14.29;100.00;101153.13;5058537;28;20467;-76
2022/10/23 09:39:34;;;;;;;21.73;20.40;;;;;;;14.08;100.00;101138.50;5059111;28;20048;-75
2022/10/23 09:42:03;;;;;;;;;;;;;;;13.91;100.00;101148.28;5060925;28;20059;-76
2022/10/23 09:44:31;;;;;;;24.45;22.00;;;;;;;13.93;100.00;101146.28;5058374;28;20400;-77
2022/10/23 09:47:12;;;;;;;25.35;23.95;;;;;;;13.87;100.00;101146.97;5060174;28;20036;-76
2022/10/23 09:49:45;;;;;;;23.77;22.38;;;;;;;13.98;100.00;101127.25;5063631;28;20032;-75
2022/10/23 09:52:10;;;;;;;24.58;22.80;;;;;;;14.11;100.00;101137.34;5057885;28;20050;-76
2022/10/23 09:54:43;;;;;;;23.70;22.30;;;;;;;14.26;100.00;101133.03;5055632;28;20028;-75
2022/10/23 09:57:35;;;;;;;25.92;24.70;;;;;;;14.61;100.00;101133.66;5060152;28;20043;-76
2022/10/23 10:00:13;;;;;;;20.55;19.65;;;;;;;14.95;100.00;101132.59;5053687;28;20037;-76
2022/10/23 10:02:41;;;;;;;19.73;18.67;;;;;;;14.83;100.00;101129.50;5052315;28;20032;-76
2022/10/23 10:05:28;;;;;;;20.17;18.85;;;;;;;14.60;100.00;101124.06;5067251;28;20035;-76
2022/10/23 10:08:19;;;;;;;19.10;18.17;;;;;;;14.71;100.00;101114.91;5057986;28;20074;-74
2022/10/23 10:10:49;;;;;;;;;;;;;;;14.82;100.00;101107.38;5058319;28;20583;-74
2022/10/23 10:13:36;;;;;;;17.75;16.75;;;;;;;15.20;100.00;101096.94;5056865;28;20301;-75
2022/10/23 10:16:24;;;;;;;24.52;22.98;;;;;;;14.85;100.00;101089.44;5061716;28;20157;-75
2022/10/23 10:19:02;;;;;;;20.23;18.85;;;;;;;14.66;100.00;101080.88;5060085;28;20067;-75
2022/10/23 10:21:31;;;;;;;21.48;20.00;;;;;;;14.79;100.00;101070.53;5059765;28;20078;-74
2022/10/23 10:24:07;;;;;;;26.58;24.95;;;;;;;15.00;100.00;101079.75;5059104;28;20446;-76
2022/10/23 10:26:57;;;;;;;23.98;22.70;;;;;;;15.12;100.00;101073.03;5064024;28;20028;-74
2022/10/23 10:29:38;;;;;;;27.50;25.97;;;;;;;15.52;100.00;101073.78;5056520;28;20501;-76
2022/10/23 10:32:09;;;;;;;22.95;21.63;;;;;;;15.95;100.00;101071.50;5058308;28;20082;-75
2022/10/23 10:35:21;;;;;;;17.10;15.57;;;;;;;15.87;100.00;101060.91;5058953;28;20127;-74
2022/10/23 10:37:46;;;;;;;16.23;15.32;;;;;;;15.75;100.00;101065.84;5057726;28;20048;-76
2022/10/23 10:40:17;;;;;;;18.80;17.90;;;;;;;15.50;100.00;101053.69;5057284;28;20080;-74
2022/10/23 10:43:13;;;;;;;20.42;19.35;;;;;;;15.84;100.00;101061.28;5059497;28;20435;-76
2022/10/23 10:45:56;;;;;;;18.42;17.33;;;;;;;15.90;100.00;101047.28;5058430;28;20036;-74
2022/10/23 10:48:36;;;;;;;19.13;18.23;;;;;;;15.83;100.00;101059.66;5057996;28;20032;-74
2022/10/23 10:51:12;;;;;;;19.40;18.48;;;;;;;15.86;100.00;101040.66;5057732;28;20040;-76
2022/10/23 10:54:15;;;;;;;21.13;20.17;;;;;;;15.87;100.00;101062.75;5056969;28;20077;-74
2022/10/23 10:56:43;;;;;;;23.48;22.13;;;;;;;15.87;100.00;101052.94;5057712;28;20029;-75
2022/10/23 10:59:22;;;;;;;21.45;20.30;;;;;;;15.87;100.00;101060.09;5055399;28;20039;-75
2022/10/23 11:02:12;;;;;;;26.35;24.50;;;;;;;15.87;100.00;101052.94;5057059;28;20357;-75
2022/10/23 11:04:55;;;;;;;24.42;23.13;;;;;;;15.54;100.00;101045.19;5056313;28;20456;-75
2022/10/23 11:07:25;;;;;;;28.88;27.35;;;;;;;15.38;100.00;101040.00;5055698;28;20021;-75
2022/10/23 11:09:51;;;;;;;29.88;28.23;;;;;;;15.59;100.00;101034.84;5053176;28;20499;-75
2022/10/23 11:12:20;;;;;;;29.77;28.42;;;;;;;15.64;100.00;101032.47;5053428;28;20032;-75
2022/10/23 11:14:46;;;;;;;33.22;31.67;;;;;;;15.43;100.00;101008.38;5054313;28;20025;-75
2022/10/23 11:17:39;;;;;;;29.33;27.92;;;;;;;15.46;100.00;101025.78;5036568;28;20032;-75
2022/10/23 11:20:14;;;;;;;30.35;29.08;;;;;;;15.43;100.00;101016.34;5054662;28;20041;-75